createdAt,value
2023-03-15T00:00:35.115Z,2.5
2023-03-15T00:01:35.726Z,1.7
2023-03-15T00:02:36.387Z,2.5
2023-03-15T00:03:36.965Z,1.7
2023-03-15T00:04:37.549Z,2.4
2023-03-15T00:05:38.156Z,1.9
2023-03-15T00:06:38.749Z,2.1
2023-03-15T00:07:39.351Z,1.8
2023-03-15T00:08:39.928Z,2.0
2023-03-15T00:09:40.540Z,1.9
2023-03-15T00:10:41.133Z,2.3
2023-03-15T00:11:41.728Z,1.8
2023-03-15T00:12:42.348Z,1.9
2023-03-15T00:13:42.952Z,1.8
2023-03-15T00:14:43.550Z,2.0
2023-03-15T00:15:44.214Z,2.0
2023-03-15T00:16:44.753Z,1.7
2023-03-15T00:17:45.350Z,2.7
2023-03-15T00:18:45.942Z,2.2
2023-03-15T00:19:46.532Z,3.8
2023-03-15T00:20:47.147Z,3.8
2023-03-15T00:21:47.718Z,2.0
2023-03-15T00:22:48.312Z,2.2
2023-03-15T00:23:48.907Z,1.8
2023-03-15T00:24:49.495Z,2.0
2023-03-15T00:25:50.092Z,1.5
2023-03-15T00:26:50.678Z,2.0
2023-03-15T00:27:51.273Z,2.2
2023-03-15T00:28:51.869Z,1.7
2023-03-15T00:29:52.476Z,1.8
2023-03-15T00:30:53.113Z,2.1
2023-03-15T00:31:53.659Z,2.1
2023-03-15T00:32:54.300Z,2.1
2023-03-15T00:33:54.846Z,2.5
2023-03-15T00:34:55.438Z,2.1
2023-03-15T00:35:56.063Z,2.2
2023-03-15T00:36:56.626Z,2.0
2023-03-15T00:37:57.224Z,1.9
2023-03-15T00:38:57.854Z,2.0
2023-03-15T00:39:58.422Z,1.9
2023-03-15T00:40:59.014Z,1.7
2023-03-15T00:41:59.606Z,2.0
2023-03-15T00:43:00.201Z,2.1
2023-03-15T00:44:00.788Z,2.3
2023-03-15T00:45:01.383Z,2.0
2023-03-15T00:46:01.976Z,1.7
2023-03-15T00:47:02.596Z,2.0
2023-03-15T00:48:03.214Z,2.5
2023-03-15T00:49:03.814Z,2.4
2023-03-15T00:50:04.400Z,2.0
2023-03-15T00:51:05.018Z,2.3
2023-03-15T00:52:05.624Z,2.1
2023-03-15T00:53:06.220Z,1.7
2023-03-15T00:54:06.811Z,1.6
2023-03-15T00:55:07.405Z,1.8
2023-03-15T00:56:08.090Z,2.2
2023-03-15T00:57:08.684Z,1.8
2023-03-15T00:58:09.277Z,2.0
2023-03-15T00:59:10.032Z,2.5
2023-03-15T01:00:10.656Z,2.1
2023-03-15T01:01:11.234Z,2.1
2023-03-15T01:02:11.845Z,2.1
2023-03-15T01:03:12.505Z,2.4
2023-03-15T01:04:13.095Z,1.9
2023-03-15T01:05:13.691Z,2.1
2023-03-15T01:06:14.291Z,2.1
2023-03-15T01:07:14.874Z,2.9
2023-03-15T01:08:15.473Z,2.3
2023-03-15T01:09:16.059Z,1.9
2023-03-15T01:10:16.685Z,1.7
2023-03-15T01:11:17.275Z,2.0
2023-03-15T01:12:17.864Z,1.9
2023-03-15T01:13:18.453Z,2.3
2023-03-15T01:14:19.050Z,2.2
2023-03-15T01:15:19.648Z,1.8
2023-03-15T01:16:20.280Z,2.5
2023-03-15T01:17:20.825Z,2.0
2023-03-15T01:18:21.427Z,2.0
2023-03-15T01:19:22.015Z,2.0
2023-03-15T01:20:22.608Z,2.1
2023-03-15T01:21:23.202Z,2.0
2023-03-15T01:22:23.791Z,2.0
2023-03-15T01:23:24.395Z,2.3
2023-03-15T01:24:24.978Z,2.0
2023-03-15T01:25:25.572Z,2.2
2023-03-15T01:26:26.165Z,1.8
2023-03-15T01:27:26.757Z,2.5
2023-03-15T01:28:27.374Z,2.7
2023-03-15T01:29:27.967Z,2.0
2023-03-15T01:30:28.555Z,2.4
2023-03-15T01:31:29.257Z,2.3
2023-03-15T01:32:29.843Z,2.5
2023-03-15T01:33:30.406Z,2.5
2023-03-15T01:34:30.994Z,2.0
2023-03-15T01:35:31.639Z,2.6
2023-03-15T01:36:32.199Z,1.8
2023-03-15T01:37:32.792Z,2.2
2023-03-15T01:38:33.469Z,2.0
2023-03-15T01:39:34.062Z,2.1
2023-03-15T01:40:34.646Z,2.7
2023-03-15T01:41:35.239Z,2.1
2023-03-15T01:42:35.835Z,2.5
2023-03-15T01:43:36.427Z,1.8
2023-03-15T01:44:37.018Z,1.8
2023-03-15T01:45:37.609Z,2.0
2023-03-15T01:46:38.340Z,1.9
2023-03-15T01:47:38.809Z,2.4
2023-03-15T01:48:39.402Z,1.8
2023-03-15T01:49:40.010Z,1.9
2023-03-15T01:50:40.632Z,2.2
2023-03-15T01:51:41.238Z,2.7
2023-03-15T01:52:41.901Z,2.2
2023-03-15T01:53:42.433Z,1.8
2023-03-15T01:54:43.023Z,2.4
2023-03-15T01:55:43.616Z,2.1
2023-03-15T01:56:44.208Z,1.7
2023-03-15T01:57:44.803Z,2.3
2023-03-15T01:58:45.413Z,2.3
2023-03-15T01:59:46.007Z,2.2
2023-03-15T02:00:46.639Z,2.1
2023-03-15T02:01:47.286Z,2.7
2023-03-15T02:02:47.865Z,2.3
2023-03-15T02:03:48.478Z,1.8
2023-03-15T02:04:49.064Z,2.0
2023-03-15T02:05:49.657Z,2.0
2023-03-15T02:06:50.249Z,2.7
2023-03-15T02:07:50.844Z,2.2
2023-03-15T02:08:51.434Z,2.1
2023-03-15T02:09:52.033Z,2.9
2023-03-15T02:10:52.940Z,2.4
2023-03-15T02:11:53.448Z,2.4
2023-03-15T02:12:54.041Z,2.2
2023-03-15T02:13:54.654Z,2.3
2023-03-15T02:14:55.250Z,2.4
2023-03-15T02:15:55.838Z,2.8
2023-03-15T02:16:56.449Z,2.9
2023-03-15T02:17:57.044Z,2.7
2023-03-15T02:18:57.634Z,2.5
2023-03-15T02:19:58.230Z,3.0
2023-03-15T02:20:58.828Z,2.7
2023-03-15T02:21:59.431Z,2.7
2023-03-15T02:23:00.030Z,2.5
2023-03-15T02:24:00.614Z,2.7
2023-03-15T02:25:01.203Z,2.6
2023-03-15T02:26:01.799Z,2.8
2023-03-15T02:27:02.418Z,2.9
2023-03-15T02:28:02.981Z,2.5
2023-03-15T02:29:03.573Z,2.5
2023-03-15T02:30:04.165Z,3.1
2023-03-15T02:31:04.776Z,2.9
2023-03-15T02:32:05.404Z,2.5
2023-03-15T02:33:05.960Z,2.4
2023-03-15T02:34:06.551Z,2.9
2023-03-15T02:36:20.498Z,2.5
2023-03-15T02:37:21.082Z,2.7
2023-03-15T02:38:21.674Z,3.1
2023-03-15T02:39:22.269Z,3.0
2023-03-15T02:40:22.884Z,3.7
2023-03-15T02:41:23.457Z,3.5
2023-03-15T02:42:24.050Z,2.9
2023-03-15T02:43:24.636Z,3.5
2023-03-15T02:44:25.239Z,3.3
2023-03-15T02:45:25.850Z,3.3
2023-03-15T02:46:26.559Z,3.7
2023-03-15T02:47:27.125Z,3.4
2023-03-15T02:48:27.711Z,3.3
2023-03-15T02:49:28.303Z,3.3
2023-03-15T02:50:28.899Z,3.4
2023-03-15T02:51:29.497Z,3.0
2023-03-15T02:52:30.085Z,3.4
2023-03-15T02:53:30.677Z,3.5
2023-03-15T02:54:31.286Z,3.7
2023-03-15T02:55:31.881Z,3.4
2023-03-15T02:56:32.473Z,3.3
2023-03-15T02:57:33.069Z,3.4
2023-03-15T02:58:33.654Z,3.1
2023-03-15T02:59:34.245Z,3.4
2023-03-15T03:00:34.837Z,3.5
2023-03-15T03:01:35.483Z,3.6
2023-03-15T03:02:36.133Z,3.9
2023-03-15T03:03:36.698Z,3.8
2023-03-15T03:04:37.299Z,3.8
2023-03-15T03:05:37.890Z,3.8
2023-03-15T03:06:38.476Z,3.3
2023-03-15T03:07:39.066Z,3.6
2023-03-15T03:08:39.698Z,3.8
2023-03-15T03:09:40.291Z,3.3
2023-03-15T03:10:40.909Z,3.9
2023-03-15T03:11:41.495Z,3.5
2023-03-15T03:12:42.088Z,3.4
2023-03-15T03:13:42.676Z,3.4
2023-03-15T03:14:43.318Z,3.7
2023-03-15T03:15:44.507Z,3.6
2023-03-15T03:16:44.563Z,4.2
2023-03-15T03:17:45.164Z,3.7
2023-03-15T03:18:45.759Z,4.0
2023-03-15T03:19:46.346Z,3.7
2023-03-15T03:20:46.942Z,4.0
2023-03-15T03:21:47.529Z,4.1
2023-03-15T03:22:48.121Z,3.2
2023-03-15T03:23:48.720Z,3.6
2023-03-15T03:24:49.324Z,3.2
2023-03-15T03:25:49.915Z,3.9
2023-03-15T03:26:50.508Z,3.7
2023-03-15T03:27:51.098Z,3.6
2023-03-15T03:28:51.700Z,3.8
2023-03-15T03:29:52.279Z,3.5
2023-03-15T03:30:52.909Z,3.8
2023-03-15T03:31:53.460Z,4.2
2023-03-15T03:32:54.090Z,3.5
2023-03-15T03:33:54.663Z,3.6
2023-03-15T03:34:55.269Z,3.6
2023-03-15T03:35:55.870Z,3.7
2023-03-15T03:36:56.474Z,3.3
2023-03-15T03:37:57.063Z,3.3
2023-03-15T03:38:57.655Z,4.2
2023-03-15T03:39:58.247Z,3.7
2023-03-15T03:40:58.838Z,3.8
2023-03-15T03:41:59.436Z,4.1
2023-03-15T03:43:00.027Z,3.6
2023-03-15T03:44:00.612Z,3.8
2023-03-15T03:45:01.209Z,5.0
2023-03-15T03:46:01.857Z,4.3
2023-03-15T03:47:02.426Z,4.3
2023-03-15T03:48:03.019Z,3.6
2023-03-15T03:49:03.626Z,4.2
2023-03-15T03:50:04.217Z,3.9
2023-03-15T03:51:04.850Z,3.6
2023-03-15T03:52:05.403Z,4.1
2023-03-15T03:53:06.001Z,4.2
2023-03-15T03:54:06.610Z,4.0
2023-03-15T03:55:07.203Z,4.1
2023-03-15T03:56:07.791Z,4.2
2023-03-15T03:57:08.385Z,4.3
2023-03-15T03:58:08.977Z,4.5
2023-03-15T03:59:09.576Z,4.3
2023-03-15T04:00:10.165Z,4.4
2023-03-15T04:01:10.759Z,4.5
2023-03-15T04:02:11.420Z,4.3
2023-03-15T04:03:11.998Z,4.2
2023-03-15T04:04:12.593Z,3.9
2023-03-15T04:05:13.189Z,4.3
2023-03-15T04:06:13.772Z,4.4
2023-03-15T04:07:16.644Z,4.2
2023-03-15T04:08:15.947Z,4.5
2023-03-15T04:09:16.553Z,4.4
2023-03-15T04:10:17.132Z,4.4
2023-03-15T04:11:17.824Z,4.0
2023-03-15T04:12:18.512Z,4.1
2023-03-15T04:13:19.093Z,4.7
2023-03-15T04:14:19.685Z,4.2
2023-03-15T04:15:20.294Z,4.3
2023-03-15T04:16:20.913Z,4.1
2023-03-15T04:17:21.485Z,4.1
2023-03-15T04:18:22.076Z,4.3
2023-03-15T04:19:22.671Z,4.8
2023-03-15T04:20:23.262Z,4.4
2023-03-15T04:21:23.856Z,4.5
2023-03-15T04:22:24.446Z,4.1
2023-03-15T04:23:25.069Z,4.3
2023-03-15T04:24:25.652Z,4.1
2023-03-15T04:25:26.245Z,4.5
2023-03-15T04:26:26.850Z,4.8
2023-03-15T04:27:27.432Z,4.8
2023-03-15T04:28:28.046Z,4.7
2023-03-15T04:29:28.638Z,4.1
2023-03-15T04:30:29.230Z,4.6
2023-03-15T04:31:29.900Z,4.1
2023-03-15T04:32:30.449Z,5.0
2023-03-15T04:33:31.022Z,4.8
2023-03-15T04:34:31.650Z,4.6
2023-03-15T04:35:32.317Z,4.6
2023-03-15T04:36:32.858Z,4.8
2023-03-15T04:37:33.454Z,4.4
2023-03-15T04:38:34.077Z,4.9
2023-03-15T04:39:34.659Z,4.9
2023-03-15T04:40:35.257Z,4.7
2023-03-15T04:41:35.845Z,5.0
2023-03-15T04:42:36.486Z,4.9
2023-03-15T04:43:37.071Z,5.1
2023-03-15T04:44:37.662Z,4.9
2023-03-15T04:45:38.261Z,4.9
2023-03-15T04:46:38.907Z,5.2
2023-03-15T04:47:39.472Z,4.6
2023-03-15T04:48:40.057Z,4.7
2023-03-15T04:49:40.659Z,5.7
2023-03-15T04:50:41.242Z,5.5
2023-03-15T04:51:41.836Z,5.1
2023-03-15T04:52:42.428Z,5.2
2023-03-15T04:53:43.024Z,5.0
2023-03-15T04:54:43.631Z,5.2
2023-03-15T04:55:44.228Z,4.9
2023-03-15T04:56:44.818Z,5.1
2023-03-15T04:57:45.411Z,5.4
2023-03-15T04:58:46.012Z,5.6
2023-03-15T04:59:46.612Z,4.7
2023-03-15T05:00:47.275Z,5.1
2023-03-15T05:01:47.829Z,5.2
2023-03-15T05:02:48.405Z,5.3
2023-03-15T05:03:49.005Z,5.2
2023-03-15T05:04:49.586Z,5.8
2023-03-15T05:05:50.180Z,4.9
2023-03-15T05:06:50.777Z,4.6
2023-03-15T05:07:51.384Z,5.4
2023-03-15T05:08:51.998Z,5.2
2023-03-15T05:09:52.612Z,5.2
2023-03-15T05:10:53.196Z,5.4
2023-03-15T05:11:53.792Z,5.9
2023-03-15T05:12:54.385Z,5.4
2023-03-15T05:13:54.977Z,5.3
2023-03-15T05:14:55.595Z,4.8
2023-03-15T05:15:56.202Z,5.0
2023-03-15T05:16:56.775Z,5.3
2023-03-15T05:17:57.369Z,5.1
2023-03-15T05:18:57.960Z,4.9
2023-03-15T05:19:58.575Z,5.2
2023-03-15T05:20:59.168Z,5.8
2023-03-15T05:21:59.764Z,5.5
2023-03-15T05:23:00.359Z,5.1
2023-03-15T05:24:00.952Z,5.0
2023-03-15T05:25:01.562Z,5.3
2023-03-15T05:26:02.164Z,4.7
2023-03-15T05:27:02.753Z,5.2
2023-03-15T05:28:03.347Z,5.0
2023-03-15T05:29:03.937Z,5.0
2023-03-15T05:30:04.539Z,5.6
2023-03-15T05:31:05.125Z,5.4
2023-03-15T05:32:05.801Z,5.1
2023-03-15T05:33:06.364Z,5.3
2023-03-15T05:34:06.973Z,4.8
2023-03-15T05:35:07.550Z,5.0
2023-03-15T05:36:08.145Z,5.3
2023-03-15T05:37:08.739Z,5.4
2023-03-15T05:38:09.347Z,5.6
2023-03-15T05:39:09.968Z,5.5
2023-03-15T05:40:10.553Z,5.4
2023-03-15T05:41:11.187Z,5.1
2023-03-15T05:42:11.783Z,5.5
2023-03-15T05:43:12.392Z,6.4
2023-03-15T05:44:13.000Z,5.6
2023-03-15T05:45:13.596Z,5.3
2023-03-15T05:46:14.264Z,5.8
2023-03-15T05:47:14.821Z,5.6
2023-03-15T05:48:15.417Z,5.4
2023-03-15T05:49:16.013Z,5.3
2023-03-15T05:50:16.612Z,5.4
2023-03-15T05:51:17.206Z,6.0
2023-03-15T05:52:17.801Z,5.6
2023-03-15T05:53:18.420Z,5.3
2023-03-15T05:54:19.017Z,6.2
2023-03-15T05:55:19.608Z,5.7
2023-03-15T05:56:20.523Z,5.4
2023-03-15T05:57:21.135Z,5.4
2023-03-15T05:58:21.730Z,5.7
2023-03-15T05:59:22.324Z,5.2
2023-03-15T06:00:22.918Z,6.1
2023-03-15T06:01:23.517Z,5.9
2023-03-15T06:02:24.113Z,5.9
2023-03-15T06:03:24.820Z,5.5
2023-03-15T06:04:25.421Z,6.0
2023-03-15T06:05:26.016Z,5.5
2023-03-15T06:06:26.612Z,5.9
2023-03-15T06:07:27.208Z,5.6
2023-03-15T06:08:27.811Z,5.7
2023-03-15T06:09:28.397Z,5.3
2023-03-15T06:10:29.210Z,5.5
2023-03-15T06:11:29.821Z,5.6
2023-03-15T06:12:30.422Z,5.5
2023-03-15T06:13:31.026Z,5.8
2023-03-15T06:14:31.616Z,5.2
2023-03-15T06:15:32.217Z,5.9
2023-03-15T06:16:32.864Z,5.6
2023-03-15T06:17:33.422Z,5.0
2023-03-15T06:18:34.026Z,5.4
2023-03-15T06:19:36.295Z,6.1
2023-03-15T06:20:36.227Z,5.2
2023-03-15T06:21:36.824Z,6.0
2023-03-15T06:22:37.417Z,5.6
2023-03-15T06:23:38.011Z,6.5
2023-03-15T06:24:38.647Z,5.9
2023-03-15T06:25:39.242Z,6.1
2023-03-15T06:26:39.864Z,6.0
2023-03-15T06:27:40.455Z,6.0
2023-03-15T06:28:41.050Z,6.7
2023-03-15T06:29:41.651Z,5.6
2023-03-15T06:30:42.314Z,6.2
2023-03-15T06:31:42.937Z,6.2
2023-03-15T06:32:43.610Z,7.0
2023-03-15T06:33:44.207Z,6.5
2023-03-15T06:34:44.799Z,5.8
2023-03-15T06:35:45.434Z,6.4
2023-03-15T06:36:46.012Z,5.8
2023-03-15T06:37:46.609Z,6.5
2023-03-15T06:38:47.218Z,6.1
2023-03-15T06:39:47.815Z,6.2
2023-03-15T06:40:48.415Z,6.2
2023-03-15T06:41:49.019Z,6.2
2023-03-15T06:42:49.620Z,6.8
2023-03-15T06:43:50.215Z,6.4
2023-03-15T06:44:51.243Z,6.0
2023-03-15T06:45:51.934Z,6.4
2023-03-15T06:46:52.492Z,6.4
2023-03-15T06:47:53.086Z,6.1
2023-03-15T06:48:53.691Z,6.0
2023-03-15T06:49:55.386Z,6.2
2023-03-15T06:50:55.868Z,6.3
2023-03-15T06:51:56.465Z,5.9
2023-03-15T06:52:57.066Z,6.5
2023-03-15T06:53:57.682Z,6.3
2023-03-15T06:54:58.286Z,5.9
2023-03-15T06:55:58.879Z,5.7
2023-03-15T06:56:59.474Z,6.7
2023-03-15T06:58:00.093Z,6.8
2023-03-15T06:59:00.669Z,6.1
2023-03-15T07:00:01.264Z,6.3
2023-03-15T07:01:01.863Z,6.1
2023-03-15T07:02:02.460Z,6.2
2023-03-15T07:03:03.077Z,5.7
2023-03-15T07:04:03.656Z,5.6
2023-03-15T07:05:04.278Z,7.0
2023-03-15T07:06:04.880Z,6.8
2023-03-15T07:07:05.481Z,6.6
2023-03-15T07:08:06.086Z,5.5
2023-03-15T07:09:06.680Z,6.2
2023-03-15T07:10:07.284Z,6.3
2023-03-15T07:11:07.883Z,6.6
2023-03-15T07:12:08.483Z,5.6
2023-03-15T07:13:09.080Z,5.7
2023-03-15T07:14:09.683Z,5.3
2023-03-15T07:15:10.299Z,5.6
2023-03-15T07:16:10.951Z,5.1
2023-03-15T07:17:11.533Z,4.9
2023-03-15T07:18:12.127Z,4.8
2023-03-15T07:19:12.731Z,4.6
2023-03-15T07:20:13.323Z,5.5
2023-03-15T07:21:13.923Z,5.0
2023-03-15T07:22:14.533Z,4.9
2023-03-15T07:23:15.122Z,5.2
2023-03-15T07:24:15.730Z,6.0
2023-03-15T07:25:16.337Z,5.6
2023-03-15T07:26:16.943Z,5.2
2023-03-15T07:27:19.312Z,4.8
2023-03-15T07:28:19.129Z,4.6
2023-03-15T07:29:19.732Z,4.6
2023-03-15T07:30:20.351Z,4.8
2023-03-15T07:31:20.944Z,4.1
2023-03-15T07:32:21.597Z,3.8
2023-03-15T07:33:22.205Z,3.8
2023-03-15T07:34:22.772Z,4.2
2023-03-15T07:35:23.371Z,3.8
2023-03-15T07:36:23.970Z,4.2
2023-03-15T07:37:24.574Z,4.1
2023-03-15T07:38:25.164Z,3.9
2023-03-15T07:39:25.759Z,4.0
2023-03-15T07:40:26.374Z,3.7
2023-03-15T07:41:26.977Z,3.8
2023-03-15T07:42:27.575Z,3.7
2023-03-15T07:43:28.171Z,3.9
2023-03-15T07:44:28.772Z,3.8
2023-03-15T07:45:29.370Z,3.8
2023-03-15T07:46:30.009Z,3.7
2023-03-15T07:47:30.585Z,3.5
2023-03-15T07:48:31.187Z,3.6
2023-03-15T07:49:31.793Z,3.9
2023-03-15T07:50:32.411Z,3.4
2023-03-15T07:51:33.021Z,3.6
2023-03-15T07:52:33.618Z,3.7
2023-03-15T07:53:34.216Z,4.0
2023-03-15T07:54:34.814Z,3.9
2023-03-15T07:55:35.408Z,3.6
2023-03-15T07:56:36.025Z,3.8
2023-03-15T07:57:36.623Z,3.6
2023-03-15T07:58:37.222Z,3.1
2023-03-15T07:59:37.822Z,3.3
2023-03-15T08:00:38.421Z,3.1
2023-03-15T08:01:39.024Z,3.3
2023-03-15T08:02:39.651Z,3.1
2023-03-15T08:03:40.272Z,2.8
2023-03-15T08:04:40.841Z,3.4
2023-03-15T08:05:41.433Z,3.5
2023-03-15T08:06:42.050Z,3.0
2023-03-15T08:07:42.655Z,3.5
2023-03-15T08:08:43.273Z,3.2
2023-03-15T08:09:43.870Z,3.3
2023-03-15T08:10:44.473Z,3.1
2023-03-15T08:11:45.777Z,2.8
2023-03-15T08:12:46.414Z,3.4
2023-03-15T08:13:47.026Z,3.4
2023-03-15T08:14:47.611Z,3.6
2023-03-15T08:15:48.212Z,3.2
2023-03-15T08:16:48.879Z,3.3
2023-03-15T08:17:49.452Z,2.8
2023-03-15T08:18:50.052Z,3.4
2023-03-15T08:19:50.650Z,3.0
2023-03-15T08:20:51.252Z,3.1
2023-03-15T08:21:51.850Z,3.8
2023-03-15T08:22:52.456Z,3.4
2023-03-15T08:23:53.051Z,3.1
2023-03-15T08:24:53.651Z,3.5
2023-03-15T08:25:54.275Z,3.1
2023-03-15T08:26:54.892Z,4.1
2023-03-15T08:27:55.495Z,3.2
2023-03-15T08:28:56.115Z,3.1
2023-03-15T08:29:56.729Z,3.5
2023-03-15T08:30:57.326Z,3.5
2023-03-15T08:31:57.990Z,3.5
2023-03-15T08:32:58.571Z,4.1
2023-03-15T08:33:59.156Z,3.2
2023-03-15T08:34:59.752Z,3.5
2023-03-15T08:36:00.435Z,3.7
2023-03-15T08:37:00.988Z,3.6
2023-03-15T08:38:01.593Z,3.4
2023-03-15T08:39:02.211Z,3.4
2023-03-15T08:40:02.802Z,3.4
2023-03-15T08:41:03.425Z,3.0
2023-03-15T08:42:04.037Z,3.6
2023-03-15T08:43:04.642Z,3.6
2023-03-15T08:44:05.243Z,3.7
2023-03-15T08:45:05.832Z,4.1
2023-03-15T08:46:06.441Z,3.4
2023-03-15T08:47:07.027Z,3.9
2023-03-15T08:48:07.624Z,3.5
2023-03-15T08:49:08.222Z,2.9
2023-03-15T08:50:08.819Z,3.7
2023-03-15T08:51:09.435Z,3.4
2023-03-15T08:52:10.074Z,3.3
2023-03-15T08:53:10.648Z,3.9
2023-03-15T08:54:11.267Z,3.4
2023-03-15T08:55:11.868Z,3.8
2023-03-15T08:56:12.468Z,3.1
2023-03-15T08:57:13.068Z,3.2
2023-03-15T08:58:13.671Z,2.8
2023-03-15T08:59:19.528Z,4.1
2023-03-15T09:00:15.862Z,3.7
2023-03-15T09:01:16.466Z,3.1
2023-03-15T09:02:17.118Z,3.8
2023-03-15T09:03:17.699Z,3.2
2023-03-15T09:04:18.327Z,2.9
2023-03-15T09:05:18.918Z,3.3
2023-03-15T09:06:19.519Z,3.7
2023-03-15T09:07:20.123Z,3.1
2023-03-15T09:08:20.717Z,3.7
2023-03-15T09:09:21.319Z,3.8
2023-03-15T09:10:21.917Z,3.4
2023-03-15T09:11:22.538Z,3.8
2023-03-15T09:12:23.160Z,2.9
2023-03-15T09:13:23.761Z,3.7
2023-03-15T09:14:24.367Z,3.4
2023-03-15T09:15:24.953Z,3.3
2023-03-15T09:16:25.597Z,3.3
2023-03-15T09:17:26.194Z,3.7
2023-03-15T09:18:26.760Z,3.5
2023-03-15T09:19:27.349Z,3.4
2023-03-15T09:20:27.954Z,3.0
2023-03-15T09:21:28.557Z,4.4
2023-03-15T09:22:39.168Z,3.7
2023-03-15T09:23:30.739Z,3.9
2023-03-15T09:24:31.340Z,3.9
2023-03-15T09:25:31.938Z,3.5
2023-03-15T09:26:32.560Z,3.7
2023-03-15T09:27:33.169Z,3.3
2023-03-15T09:28:33.785Z,3.7
2023-03-15T09:29:34.394Z,3.8
2023-03-15T09:30:35.042Z,3.6
2023-03-15T09:31:35.601Z,3.3
2023-03-15T09:32:36.470Z,3.2
2023-03-15T09:33:37.154Z,3.0
2023-03-15T09:34:41.880Z,4.7
2023-03-15T09:35:39.397Z,3.4
2023-03-15T09:36:39.978Z,3.4
2023-03-15T09:37:40.588Z,3.0
2023-03-15T09:38:41.182Z,3.4
2023-03-15T09:39:41.781Z,3.3
2023-03-15T09:40:42.444Z,3.9
2023-03-15T09:41:43.003Z,3.0
2023-03-15T09:42:43.603Z,3.3
2023-03-15T09:43:44.220Z,3.0
2023-03-15T09:44:44.877Z,2.8
2023-03-15T09:45:45.575Z,2.8
2023-03-15T09:46:46.197Z,2.3
2023-03-15T09:47:46.773Z,2.3
2023-03-15T09:48:47.400Z,2.5
2023-03-15T09:49:48.004Z,2.4
2023-03-15T09:50:48.597Z,2.7
2023-03-15T09:51:49.202Z,2.7
2023-03-15T09:52:49.804Z,2.8
2023-03-15T09:53:50.402Z,2.6
2023-03-15T09:54:51.019Z,3.0
2023-03-15T09:55:51.622Z,3.0
2023-03-15T09:56:52.218Z,2.6
2023-03-15T09:57:52.819Z,2.5
2023-03-15T09:58:53.419Z,2.6
2023-03-15T09:59:54.034Z,2.4
2023-03-15T10:00:54.624Z,2.4
2023-03-15T10:01:55.314Z,1.7
2023-03-15T10:02:55.881Z,2.2
2023-03-15T10:03:56.539Z,2.1
2023-03-15T10:04:57.086Z,1.7
2023-03-15T10:05:57.688Z,2.0
2023-03-15T10:06:58.288Z,1.5
2023-03-15T10:07:58.888Z,2.1
2023-03-15T10:08:59.510Z,2.3
2023-03-15T10:10:00.110Z,2.4
2023-03-15T10:11:00.710Z,2.3
2023-03-15T10:12:01.311Z,2.2
2023-03-15T10:13:01.913Z,2.4
2023-03-15T10:14:02.508Z,2.3
2023-03-15T10:15:03.112Z,2.6
2023-03-15T10:16:03.734Z,2.8
2023-03-15T10:17:04.321Z,2.4
2023-03-15T10:18:04.920Z,2.2
2023-03-15T10:19:05.529Z,2.4
2023-03-15T10:20:06.152Z,2.1
2023-03-15T10:21:07.734Z,2.1
2023-03-15T10:22:07.364Z,2.1
2023-03-15T10:23:07.964Z,3.0
2023-03-15T10:24:08.561Z,2.6
2023-03-15T10:25:09.166Z,2.0
2023-03-15T10:26:09.761Z,2.1
2023-03-15T10:27:10.383Z,2.0
2023-03-15T10:28:10.980Z,1.7
2023-03-15T10:29:11.586Z,1.9
2023-03-15T10:30:12.189Z,2.1
2023-03-15T10:31:18.221Z,1.9
2023-03-15T10:32:14.412Z,1.8
2023-03-15T10:33:14.989Z,1.9
2023-03-15T10:34:15.588Z,1.8
2023-03-15T10:35:16.188Z,1.8
2023-03-15T10:36:16.825Z,1.6
2023-03-15T10:37:17.397Z,1.7
2023-03-15T10:38:18.015Z,2.0
2023-03-15T10:39:18.615Z,1.8
2023-03-15T10:40:19.215Z,1.9
2023-03-15T10:41:28.502Z,1.8
2023-03-15T10:42:21.430Z,1.9
2023-03-15T10:43:22.027Z,1.8
2023-03-15T10:44:22.629Z,2.1
2023-03-15T10:45:23.230Z,1.9
2023-03-15T10:46:23.880Z,1.4
2023-03-15T10:47:24.876Z,1.4
2023-03-15T10:48:25.059Z,1.6
2023-03-15T10:49:25.650Z,1.7
2023-03-15T10:50:26.255Z,2.2
2023-03-15T10:51:26.857Z,1.9
2023-03-15T10:52:27.476Z,1.6
2023-03-15T10:53:28.073Z,1.5
2023-03-15T10:54:28.673Z,2.2
2023-03-15T10:55:29.271Z,1.8
2023-03-15T10:56:29.877Z,1.7
2023-03-15T10:57:30.492Z,1.7
2023-03-15T10:58:31.138Z,1.2
2023-03-15T10:59:31.723Z,1.6
2023-03-15T11:00:32.336Z,1.5
2023-03-15T11:01:32.951Z,1.6
2023-03-15T11:02:33.600Z,1.2
2023-03-15T11:03:34.161Z,1.0
2023-03-15T11:04:34.775Z,1.2
2023-03-15T11:05:35.375Z,1.4
2023-03-15T11:06:35.975Z,1.3
2023-03-15T11:07:36.567Z,1.3
2023-03-15T11:08:37.181Z,1.5
2023-03-15T11:09:37.780Z,1.3
2023-03-15T11:10:38.382Z,1.2
2023-03-15T11:11:38.984Z,2.1
2023-03-15T11:12:39.584Z,1.8
2023-03-15T11:13:40.195Z,1.6
2023-03-15T11:14:40.810Z,1.9
2023-03-15T11:15:41.414Z,1.5
2023-03-15T11:16:42.013Z,1.5
2023-03-15T11:17:42.613Z,1.6
2023-03-15T11:18:43.212Z,1.8
2023-03-15T11:19:43.814Z,1.4
2023-03-15T11:20:44.415Z,1.5
2023-03-15T11:21:45.021Z,1.2
2023-03-15T11:22:45.627Z,1.4
2023-03-15T11:23:46.254Z,1.3
2023-03-15T11:24:46.910Z,1.5
2023-03-15T11:25:47.486Z,1.4
2023-03-15T11:26:48.064Z,1.6
2023-03-15T11:27:48.665Z,1.3
2023-03-15T11:28:49.263Z,1.6
2023-03-15T11:29:49.869Z,1.5
2023-03-15T11:30:50.547Z,1.5
2023-03-15T11:31:51.256Z,1.4
2023-03-15T11:32:51.965Z,1.3
2023-03-15T11:33:52.528Z,1.3
2023-03-15T11:34:53.147Z,1.3
2023-03-15T11:35:53.788Z,1.4
2023-03-15T11:37:07.141Z,1.6
2023-03-15T11:37:58.510Z,1.5
2023-03-15T11:38:56.560Z,1.3
2023-03-15T11:40:08.937Z,1.4
2023-03-15T11:40:58.762Z,1.4
2023-03-15T11:41:59.367Z,1.6
2023-03-15T11:42:59.956Z,1.1
2023-03-15T11:44:00.554Z,1.3
2023-03-15T11:45:01.171Z,1.4
2023-03-15T11:46:01.812Z,1.4
2023-03-15T11:47:02.422Z,1.8
2023-03-15T11:48:03.025Z,1.3
2023-03-15T11:49:03.640Z,1.3
2023-03-15T11:50:04.240Z,1.3
2023-03-15T11:51:04.844Z,1.4
2023-03-15T11:52:05.448Z,1.0
2023-03-15T11:53:06.050Z,1.3
2023-03-15T11:54:06.648Z,1.1
2023-03-15T11:55:07.253Z,1.1
2023-03-15T11:56:07.870Z,1.0
2023-03-15T11:57:08.468Z,1.2
2023-03-15T11:58:09.065Z,0.9
2023-03-15T11:59:09.663Z,0.9
2023-03-15T12:00:10.310Z,1.2
2023-03-15T12:01:10.857Z,1.2
2023-03-15T12:02:11.596Z,1.4
2023-03-15T12:03:12.217Z,1.3
2023-03-15T12:04:14.980Z,1.3
2023-03-15T12:05:18.324Z,1.2
2023-03-15T12:06:16.004Z,1.2
2023-03-15T12:07:16.604Z,1.3
2023-03-15T12:08:17.204Z,0.9
2023-03-15T12:09:17.812Z,1.5
2023-03-15T12:10:18.417Z,1.2
2023-03-15T12:11:19.024Z,1.5
2023-03-15T12:12:19.625Z,1.4
2023-03-15T12:13:20.225Z,1.1
2023-03-15T12:14:20.832Z,1.0
2023-03-15T12:15:21.455Z,1.2
2023-03-15T12:16:22.084Z,1.2
2023-03-15T12:17:22.640Z,0.8
2023-03-15T12:18:23.246Z,1.0
2023-03-15T12:19:23.847Z,1.3
2023-03-15T12:20:24.439Z,1.2
2023-03-15T12:21:25.038Z,1.1
2023-03-15T12:22:25.636Z,1.0
2023-03-15T12:23:26.234Z,1.2
2023-03-15T12:24:26.840Z,1.0
2023-03-15T12:25:27.442Z,1.1
2023-03-15T12:26:28.057Z,1.0
2023-03-15T12:27:28.656Z,0.6
2023-03-15T12:28:29.264Z,0.8
2023-03-15T12:29:29.849Z,0.9
2023-03-15T12:30:30.508Z,1.2
2023-03-15T12:31:31.067Z,0.9
2023-03-15T12:32:31.716Z,1.3
2023-03-15T12:33:32.269Z,0.9
2023-03-15T12:34:32.867Z,1.0
2023-03-15T12:35:33.491Z,0.7
2023-03-15T12:36:34.104Z,0.9
2023-03-15T12:37:34.716Z,1.3
2023-03-15T12:38:35.312Z,0.8
2023-03-15T12:39:35.932Z,1.0
2023-03-15T12:40:36.530Z,0.9
2023-03-15T12:41:37.134Z,1.0
2023-03-15T12:42:37.734Z,1.2
2023-03-15T12:43:38.349Z,1.1
2023-03-15T12:44:38.961Z,1.0
2023-03-15T12:45:39.549Z,1.2
2023-03-15T12:46:40.153Z,1.3
2023-03-15T12:47:40.759Z,1.3
2023-03-15T12:48:41.353Z,0.9
2023-03-15T12:49:41.952Z,1.1
2023-03-15T12:50:42.553Z,0.7
2023-03-15T12:51:43.158Z,0.5
2023-03-15T12:52:43.753Z,1.0
2023-03-15T12:53:44.351Z,0.7
2023-03-15T12:54:44.951Z,0.8
2023-03-15T12:55:45.550Z,0.6
2023-03-15T12:56:46.155Z,0.7
2023-03-15T12:57:46.801Z,0.7
2023-03-15T12:58:47.363Z,0.7
2023-03-15T12:59:47.960Z,0.8
2023-03-15T13:00:48.561Z,0.7
2023-03-15T13:01:49.253Z,0.7
2023-03-15T13:02:49.937Z,0.6
2023-03-15T13:03:50.436Z,0.8
2023-03-15T13:04:51.030Z,0.8
2023-03-15T13:06:02.719Z,1.0
2023-03-15T13:06:53.224Z,0.9
2023-03-15T13:07:53.823Z,0.7
2023-03-15T13:08:54.442Z,0.8
2023-03-15T13:09:55.037Z,0.8
2023-03-15T13:10:55.636Z,0.6
2023-03-15T13:11:56.239Z,0.7
2023-03-15T13:12:56.834Z,0.9
2023-03-15T13:13:57.438Z,0.6
2023-03-15T13:14:58.042Z,0.7
2023-03-15T13:15:58.642Z,0.9
2023-03-15T13:16:59.242Z,0.8
2023-03-15T13:17:59.872Z,1.0
2023-03-15T13:19:00.472Z,1.1
2023-03-15T13:20:01.077Z,0.8
2023-03-15T13:21:01.674Z,1.0
2023-03-15T13:22:02.277Z,1.0
2023-03-15T13:23:02.909Z,1.2
2023-03-15T13:24:03.498Z,1.0
2023-03-15T13:25:04.099Z,0.7
2023-03-15T13:26:04.707Z,0.9
2023-03-15T13:27:05.309Z,1.4
2023-03-15T13:28:05.923Z,1.1
2023-03-15T13:29:06.535Z,1.1
2023-03-15T13:30:07.126Z,0.9
2023-03-15T13:31:07.753Z,1.5
2023-03-15T13:32:08.330Z,1.1
2023-03-15T13:33:08.931Z,0.7
2023-03-15T13:34:09.538Z,1.4
2023-03-15T13:35:10.151Z,1.0
2023-03-15T13:36:10.752Z,1.2
2023-03-15T13:37:11.370Z,1.8
2023-03-15T13:38:11.989Z,1.3
2023-03-15T13:39:12.610Z,1.1
2023-03-15T13:40:13.206Z,1.4
2023-03-15T13:41:13.807Z,1.1
2023-03-15T13:42:14.407Z,1.0
2023-03-15T13:43:15.029Z,0.9
2023-03-15T13:44:15.628Z,1.5
2023-03-15T13:45:16.259Z,1.1
2023-03-15T13:46:16.845Z,1.3
2023-03-15T13:47:17.475Z,1.0
2023-03-15T13:48:18.088Z,1.2
2023-03-15T13:49:18.688Z,1.3
2023-03-15T13:50:19.310Z,1.2
2023-03-15T13:51:19.911Z,1.2
2023-03-15T13:52:20.532Z,0.8
2023-03-15T13:53:21.110Z,1.0
2023-03-15T13:54:21.730Z,1.3
2023-03-15T13:55:22.318Z,1.4
2023-03-15T13:56:22.934Z,1.0